sensor_id;sensor_type;location;lat;lon;timestamp;pressure;altitude;pressure_sealevel;temperature;humidity
49529;BME280;35423;37.320;-121.762;2023-06-14T00:01:37;99794.85;;;40.82;11.23
49529;BME280;35423;37.320;-121.762;2023-06-14T00:04:00;99800.67;;;40.77;11.29
49529;BME280;35423;37.320;-121.762;2023-06-14T00:06:30;99799.48;;;40.49;11.16
49529;BME280;35423;37.320;-121.762;2023-06-14T00:08:56;99802.42;;;41.36;11.33
49529;BME280;35423;37.320;-121.762;2023-06-14T00:11:22;99802.34;;;40.12;11.58
49529;BME280;35423;37.320;-121.762;2023-06-14T00:13:53;99793.06;;;39.66;11.81
49529;BME280;35423;37.320;-121.762;2023-06-14T00:16:19;99794.46;;;39.73;11.86
49529;BME280;35423;37.320;-121.762;2023-06-14T00:18:44;99797.03;;;39.83;11.88
49529;BME280;35423;37.320;-121.762;2023-06-14T00:21:10;99796.79;;;39.93;11.80
49529;BME280;35423;37.320;-121.762;2023-06-14T00:23:35;99796.75;;;39.95;11.81
49529;BME280;35423;37.320;-121.762;2023-06-14T00:26:03;99800.75;;;39.98;11.84
49529;BME280;35423;37.320;-121.762;2023-06-14T00:28:27;99793.55;;;39.78;11.78
49529;BME280;35423;37.320;-121.762;2023-06-14T00:30:54;99793.63;;;39.64;11.85
49529;BME280;35423;37.320;-121.762;2023-06-14T00:33:19;99787.53;;;39.76;11.90
49529;BME280;35423;37.320;-121.762;2023-06-14T00:35:46;99786.63;;;39.71;11.91
49529;BME280;35423;37.320;-121.762;2023-06-14T00:38:15;99786.15;;;39.44;11.94
49529;BME280;35423;37.320;-121.762;2023-06-14T00:40:41;99782.88;;;39.67;11.85
49529;BME280;35423;37.320;-121.762;2023-06-14T00:43:11;99778.96;;;39.57;11.97
49529;BME280;35423;37.320;-121.762;2023-06-14T00:45:38;99776.31;;;39.67;12.05
49529;BME280;35423;37.320;-121.762;2023-06-14T00:48:03;99776.53;;;39.37;12.16
49529;BME280;35423;37.320;-121.762;2023-06-14T00:50:35;99779.97;;;39.58;12.21
49529;BME280;35423;37.320;-121.762;2023-06-14T00:53:06;99781.23;;;39.28;12.19
49529;BME280;35423;37.320;-121.762;2023-06-14T00:55:38;99781.77;;;39.22;12.23
49529;BME280;35423;37.320;-121.762;2023-06-14T00:58:07;99781.46;;;39.38;12.25
49529;BME280;35423;37.320;-121.762;2023-06-14T01:00:32;99778.22;;;38.86;12.42
49529;BME280;35423;37.320;-121.762;2023-06-14T01:03:25;99774.71;;;39.31;12.48
49529;BME280;35423;37.320;-121.762;2023-06-14T01:05:26;99770.50;;;39.09;12.49
49529;BME280;35423;37.320;-121.762;2023-06-14T01:08:09;99769.31;;;38.98;12.52
49529;BME280;35423;37.320;-121.762;2023-06-14T01:10:35;99764.15;;;38.62;12.55
49529;BME280;35423;37.320;-121.762;2023-06-14T01:13:15;99760.60;;;38.84;12.57
49529;BME280;35423;37.320;-121.762;2023-06-14T01:15:29;99763.94;;;38.61;12.65
49529;BME280;35423;37.320;-121.762;2023-06-14T01:17:54;99760.39;;;38.69;12.74
49529;BME280;35423;37.320;-121.762;2023-06-14T01:20:23;99755.02;;;38.57;12.79
49529;BME280;35423;37.320;-121.762;2023-06-14T01:22:52;99751.45;;;38.45;12.86
49529;BME280;35423;37.320;-121.762;2023-06-14T01:25:16;99754.95;;;38.37;12.88
49529;BME280;35423;37.320;-121.762;2023-06-14T01:27:42;99756.91;;;38.29;12.86
49529;BME280;35423;37.320;-121.762;2023-06-14T01:30:10;99756.29;;;38.13;12.95
49529;BME280;35423;37.320;-121.762;2023-06-14T01:32:32;99756.58;;;38.00;13.02
49529;BME280;35423;37.320;-121.762;2023-06-14T01:34:58;99758.03;;;37.87;13.06
49529;BME280;35423;37.320;-121.762;2023-06-14T01:37:23;99762.70;;;37.79;13.09
49529;BME280;35423;37.320;-121.762;2023-06-14T01:39:49;99764.32;;;37.70;13.15
49529;BME280;35423;37.320;-121.762;2023-06-14T01:42:14;99763.32;;;38.11;13.26
49529;BME280;35423;37.320;-121.762;2023-06-14T01:44:40;99763.81;;;37.53;13.29
49529;BME280;35423;37.320;-121.762;2023-06-14T01:47:07;99761.54;;;37.47;13.34
49529;BME280;35423;37.320;-121.762;2023-06-14T01:49:34;99761.35;;;37.65;13.37
49529;BME280;35423;37.320;-121.762;2023-06-14T01:51:57;99761.32;;;37.81;13.39
49529;BME280;35423;37.320;-121.762;2023-06-14T01:54:29;99756.90;;;37.46;13.44
49529;BME280;35423;37.320;-121.762;2023-06-14T01:56:58;99753.46;;;37.40;13.45
49529;BME280;35423;37.320;-121.762;2023-06-14T01:59:22;99751.91;;;37.30;13.48
49529;BME280;35423;37.320;-121.762;2023-06-14T02:01:49;99752.17;;;37.50;13.48
49529;BME280;35423;37.320;-121.762;2023-06-14T02:04:25;99759.70;;;37.36;13.57
49529;BME280;35423;37.320;-121.762;2023-06-14T02:06:53;99771.27;;;37.25;13.62
49529;BME280;35423;37.320;-121.762;2023-06-14T02:09:16;99773.25;;;37.11;13.69
49529;BME280;35423;37.320;-121.762;2023-06-14T02:11:44;99778.60;;;36.89;13.78
49529;BME280;35423;37.320;-121.762;2023-06-14T02:14:18;99778.19;;;36.76;13.85
49529;BME280;35423;37.320;-121.762;2023-06-14T02:16:37;99783.67;;;36.70;13.88
49529;BME280;35423;37.320;-121.762;2023-06-14T02:19:04;99784.02;;;36.55;13.94
49529;BME280;35423;37.320;-121.762;2023-06-14T02:21:28;99784.03;;;36.69;13.96
49529;BME280;35423;37.320;-121.762;2023-06-14T02:23:53;99780.06;;;36.58;14.03
49529;BME280;35423;37.320;-121.762;2023-06-14T02:26:22;99781.28;;;36.42;14.04
49529;BME280;35423;37.320;-121.762;2023-06-14T02:29:03;99781.37;;;36.52;14.16
49529;BME280;35423;37.320;-121.762;2023-06-14T02:31:14;99780.47;;;35.99;14.32
49529;BME280;35423;37.320;-121.762;2023-06-14T02:33:42;99784.38;;;36.07;14.47
49529;BME280;35423;37.320;-121.762;2023-06-14T02:36:14;99794.33;;;36.16;14.54
49529;BME280;35423;37.320;-121.762;2023-06-14T02:38:32;99797.86;;;35.99;14.61
49529;BME280;35423;37.320;-121.762;2023-06-14T02:41:03;99795.67;;;35.30;14.67
49529;BME280;35423;37.320;-121.762;2023-06-14T02:43:23;99797.59;;;35.88;14.76
49529;BME280;35423;37.320;-121.762;2023-06-14T02:45:50;99799.57;;;35.77;14.81
49529;BME280;35423;37.320;-121.762;2023-06-14T02:48:16;99806.37;;;35.28;14.93
49529;BME280;35423;37.320;-121.762;2023-06-14T02:50:41;99811.56;;;35.31;15.08
49529;BME280;35423;37.320;-121.762;2023-06-14T02:53:06;99812.97;;;36.08;15.19
49529;BME280;35423;37.320;-121.762;2023-06-14T02:55:42;99814.32;;;34.85;15.36
49529;BME280;35423;37.320;-121.762;2023-06-14T02:58:11;99816.90;;;34.69;15.47
49529;BME280;35423;37.320;-121.762;2023-06-14T03:00:43;99822.64;;;34.57;15.54
49529;BME280;35423;37.320;-121.762;2023-06-14T03:03:12;99824.14;;;34.41;15.64
49529;BME280;35423;37.320;-121.762;2023-06-14T03:05:41;99830.68;;;34.71;15.70
49529;BME280;35423;37.320;-121.762;2023-06-14T03:08:05;99833.25;;;34.47;15.80
49529;BME280;35423;37.320;-121.762;2023-06-14T03:10:31;99838.52;;;33.80;15.94
49529;BME280;35423;37.320;-121.762;2023-06-14T03:13:02;99841.66;;;34.05;16.05
49529;BME280;35423;37.320;-121.762;2023-06-14T03:15:32;99845.01;;;33.61;16.20
49529;BME280;35423;37.320;-121.762;2023-06-14T03:17:58;99851.91;;;33.71;16.30
49529;BME280;35423;37.320;-121.762;2023-06-14T03:20:23;99858.06;;;33.53;16.44
49529;BME280;35423;37.320;-121.762;2023-06-14T03:22:53;99866.00;;;33.34;16.55
49529;BME280;35423;37.320;-121.762;2023-06-14T03:25:19;99874.09;;;33.41;16.71
49529;BME280;35423;37.320;-121.762;2023-06-14T03:27:45;99874.98;;;32.99;16.79
49529;BME280;35423;37.320;-121.762;2023-06-14T03:30:14;99874.55;;;33.06;16.86
49529;BME280;35423;37.320;-121.762;2023-06-14T03:32:40;99872.66;;;32.83;17.00
49529;BME280;35423;37.320;-121.762;2023-06-14T03:35:09;99879.30;;;32.92;17.06
49529;BME280;35423;37.320;-121.762;2023-06-14T03:37:35;99881.49;;;32.71;17.17
49529;BME280;35423;37.320;-121.762;2023-06-14T03:40:01;99886.73;;;32.59;17.29
49529;BME280;35423;37.320;-121.762;2023-06-14T03:42:27;99887.04;;;32.36;17.47
49529;BME280;35423;37.320;-121.762;2023-06-14T03:44:57;99891.14;;;32.18;17.61
49529;BME280;35423;37.320;-121.762;2023-06-14T03:47:24;99890.09;;;32.25;17.70
49529;BME280;35423;37.320;-121.762;2023-06-14T03:49:49;99886.50;;;31.85;17.81
49529;BME280;35423;37.320;-121.762;2023-06-14T03:52:16;99884.57;;;31.73;17.91
49529;BME280;35423;37.320;-121.762;2023-06-14T03:54:43;99888.20;;;31.59;17.96
49529;BME280;35423;37.320;-121.762;2023-06-14T03:57:10;99895.62;;;31.50;17.98
49529;BME280;35423;37.320;-121.762;2023-06-14T03:59:36;99899.66;;;31.42;17.97
49529;BME280;35423;37.320;-121.762;2023-06-14T04:02:02;99899.65;;;31.56;17.99
49529;BME280;35423;37.320;-121.762;2023-06-14T04:04:28;99901.51;;;31.67;18.05
49529;BME280;35423;37.320;-121.762;2023-06-14T04:07:04;99903.68;;;31.31;18.11
49529;BME280;35423;37.320;-121.762;2023-06-14T04:09:24;99906.55;;;31.56;18.10
49529;BME280;35423;37.320;-121.762;2023-06-14T04:11:49;99900.26;;;31.20;18.10
49529;BME280;35423;37.320;-121.762;2023-06-14T04:14:16;99900.33;;;31.36;18.12
49529;BME280;35423;37.320;-121.762;2023-06-14T04:16:43;99901.18;;;31.23;18.18
49529;BME280;35423;37.320;-121.762;2023-06-14T04:19:08;99903.26;;;30.83;18.23
49529;BME280;35423;37.320;-121.762;2023-06-14T04:21:34;99902.29;;;31.03;18.27
49529;BME280;35423;37.320;-121.762;2023-06-14T04:24:04;99904.29;;;31.17;18.33
49529;BME280;35423;37.320;-121.762;2023-06-14T04:26:29;99904.06;;;30.86;18.38
49529;BME280;35423;37.320;-121.762;2023-06-14T04:29:00;99901.15;;;31.02;18.43
49529;BME280;35423;37.320;-121.762;2023-06-14T04:31:24;99896.18;;;30.72;18.46
49529;BME280;35423;37.320;-121.762;2023-06-14T04:33:54;99891.39;;;30.60;18.54
49529;BME280;35423;37.320;-121.762;2023-06-14T04:36:19;99892.87;;;30.80;18.57
49529;BME280;35423;37.320;-121.762;2023-06-14T04:38:50;99890.23;;;30.98;18.64
49529;BME280;35423;37.320;-121.762;2023-06-14T04:41:14;99891.83;;;30.92;18.67
49529;BME280;35423;37.320;-121.762;2023-06-14T04:43:37;99893.04;;;30.56;18.74
49529;BME280;35423;37.320;-121.762;2023-06-14T04:46:07;99893.18;;;30.74;18.79
49529;BME280;35423;37.320;-121.762;2023-06-14T04:48:36;99894.42;;;30.40;18.85
49529;BME280;35423;37.320;-121.762;2023-06-14T04:51:01;99895.47;;;30.34;18.88
49529;BME280;35423;37.320;-121.762;2023-06-14T04:53:26;99900.91;;;30.24;18.93
49529;BME280;35423;37.320;-121.762;2023-06-14T04:55:52;99915.15;;;30.14;19.01
49529;BME280;35423;37.320;-121.762;2023-06-14T04:58:18;99915.24;;;30.04;19.07
49529;BME280;35423;37.320;-121.762;2023-06-14T05:00:51;99910.92;;;29.96;19.13
49529;BME280;35423;37.320;-121.762;2023-06-14T05:03:14;99902.17;;;30.14;19.19
49529;BME280;35423;37.320;-121.762;2023-06-14T05:05:44;99896.25;;;30.08;19.24
49529;BME280;35423;37.320;-121.762;2023-06-14T05:08:10;99894.62;;;30.01;19.31
49529;BME280;35423;37.320;-121.762;2023-06-14T05:10:36;99891.94;;;30.01;19.31
49529;BME280;35423;37.320;-121.762;2023-06-14T05:13:06;99893.41;;;29.93;19.35
49529;BME280;35423;37.320;-121.762;2023-06-14T05:15:33;99902.92;;;29.86;19.39
49529;BME280;35423;37.320;-121.762;2023-06-14T05:18:02;99908.96;;;29.78;19.48
49529;BME280;35423;37.320;-121.762;2023-06-14T05:20:28;99905.95;;;29.76;19.45
49529;BME280;35423;37.320;-121.762;2023-06-14T05:23:04;99904.59;;;29.90;19.49
49529;BME280;35423;37.320;-121.762;2023-06-14T05:25:23;99903.94;;;29.56;19.58
49529;BME280;35423;37.320;-121.762;2023-06-14T05:27:52;99904.80;;;29.51;19.60
49529;BME280;35423;37.320;-121.762;2023-06-14T05:30:22;99907.65;;;29.49;19.62
49529;BME280;35423;37.320;-121.762;2023-06-14T05:33:00;99904.16;;;29.64;19.64
49529;BME280;35423;37.320;-121.762;2023-06-14T05:35:17;99900.93;;;29.79;19.68
49529;BME280;35423;37.320;-121.762;2023-06-14T05:37:56;99898.44;;;29.34;19.70
49529;BME280;35423;37.320;-121.762;2023-06-14T05:40:24;99898.54;;;29.48;19.77
49529;BME280;35423;37.320;-121.762;2023-06-14T05:42:58;99897.62;;;29.43;19.77
49529;BME280;35423;37.320;-121.762;2023-06-14T05:45:16;99888.14;;;29.53;19.86
49529;BME280;35423;37.320;-121.762;2023-06-14T05:47:43;99884.80;;;29.24;19.90
49529;BME280;35423;37.320;-121.762;2023-06-14T05:50:08;99885.30;;;29.42;19.94
49529;BME280;35423;37.320;-121.762;2023-06-14T05:52:35;99889.04;;;29.34;19.99
49529;BME280;35423;37.320;-121.762;2023-06-14T05:55:08;99888.23;;;29.23;20.09
49529;BME280;35423;37.320;-121.762;2023-06-14T05:57:32;99885.39;;;28.94;20.10
49529;BME280;35423;37.320;-121.762;2023-06-14T06:00:00;99884.71;;;29.10;20.16
49529;BME280;35423;37.320;-121.762;2023-06-14T06:02:26;99883.81;;;29.04;20.19
49529;BME280;35423;37.320;-121.762;2023-06-14T06:05:06;99884.82;;;29.02;20.22
49529;BME280;35423;37.320;-121.762;2023-06-14T06:07:17;99884.98;;;28.74;20.20
49529;BME280;35423;37.320;-121.762;2023-06-14T06:09:47;99877.69;;;29.14;20.27
49529;BME280;35423;37.320;-121.762;2023-06-14T06:12:13;99876.16;;;28.78;20.43
49529;BME280;35423;37.320;-121.762;2023-06-14T06:14:40;99878.86;;;28.70;20.48
49529;BME280;35423;37.320;-121.762;2023-06-14T06:17:06;99875.64;;;28.94;20.50
49529;BME280;35423;37.320;-121.762;2023-06-14T06:19:33;99873.29;;;28.63;20.54
49529;BME280;35423;37.320;-121.762;2023-06-14T06:21:59;99877.49;;;28.59;20.59
49529;BME280;35423;37.320;-121.762;2023-06-14T06:24:32;99879.33;;;28.54;20.59
49529;BME280;35423;37.320;-121.762;2023-06-14T06:27:05;99875.62;;;28.48;20.64
49529;BME280;35423;37.320;-121.762;2023-06-14T06:29:25;99876.34;;;28.65;20.73
49529;BME280;35423;37.320;-121.762;2023-06-14T06:31:55;99881.88;;;28.78;20.77
49529;BME280;35423;37.320;-121.762;2023-06-14T06:34:20;99880.76;;;28.71;20.81
49529;BME280;35423;37.320;-121.762;2023-06-14T06:36:53;99876.84;;;28.45;20.85
49529;BME280;35423;37.320;-121.762;2023-06-14T06:39:17;99871.21;;;28.35;20.92
49529;BME280;35423;37.320;-121.762;2023-06-14T06:41:46;99869.34;;;28.51;20.97
49529;BME280;35423;37.320;-121.762;2023-06-14T06:44:19;99867.56;;;28.24;21.19
49529;BME280;35423;37.320;-121.762;2023-06-14T06:46:49;99862.13;;;28.87;21.43
49529;BME280;35423;37.320;-121.762;2023-06-14T06:49:17;99857.43;;;28.47;21.76
49529;BME280;35423;37.320;-121.762;2023-06-14T06:54:12;99865.57;;;27.88;22.25
49529;BME280;35423;37.320;-121.762;2023-06-14T06:56:40;99867.13;;;27.56;22.30
49529;BME280;35423;37.320;-121.762;2023-06-14T06:59:11;99865.33;;;27.51;22.39
49529;BME280;35423;37.320;-121.762;2023-06-14T07:01:34;99859.45;;;27.30;22.38
49529;BME280;35423;37.320;-121.762;2023-06-14T07:04:02;99850.71;;;27.23;22.23
49529;BME280;35423;37.320;-121.762;2023-06-14T07:06:28;99847.27;;;27.18;22.07
49529;BME280;35423;37.320;-121.762;2023-06-14T07:08:57;99847.84;;;27.29;21.95
49529;BME280;35423;37.320;-121.762;2023-06-14T07:11:20;99843.67;;;27.55;21.90
49529;BME280;35423;37.320;-121.762;2023-06-14T07:13:57;99836.95;;;27.32;21.89
49529;BME280;35423;37.320;-121.762;2023-06-14T07:16:23;99838.29;;;27.31;21.88
49529;BME280;35423;37.320;-121.762;2023-06-14T07:19:06;99838.84;;;27.34;21.87
49529;BME280;35423;37.320;-121.762;2023-06-14T07:21:21;99833.94;;;27.32;21.86
49529;BME280;35423;37.320;-121.762;2023-06-14T07:23:46;99833.61;;;27.23;21.88
49529;BME280;35423;37.320;-121.762;2023-06-14T07:26:12;99844.06;;;27.36;21.93
49529;BME280;35423;37.320;-121.762;2023-06-14T07:28:37;99850.30;;;27.26;22.01
49529;BME280;35423;37.320;-121.762;2023-06-14T07:31:05;99844.79;;;26.97;22.10
49529;BME280;35423;37.320;-121.762;2023-06-14T07:33:30;99840.57;;;27.07;22.21
49529;BME280;35423;37.320;-121.762;2023-06-14T07:35:58;99845.28;;;27.04;22.21
49529;BME280;35423;37.320;-121.762;2023-06-14T07:38:28;99849.90;;;26.83;22.21
49529;BME280;35423;37.320;-121.762;2023-06-14T07:41:00;99848.82;;;26.81;22.21
49529;BME280;35423;37.320;-121.762;2023-06-14T07:43:22;99841.81;;;26.91;22.35
49529;BME280;35423;37.320;-121.762;2023-06-14T07:45:50;99834.49;;;27.05;22.40
49529;BME280;35423;37.320;-121.762;2023-06-14T07:48:15;99833.80;;;26.73;22.47
49529;BME280;35423;37.320;-121.762;2023-06-14T07:50:40;99834.37;;;26.71;22.45
49529;BME280;35423;37.320;-121.762;2023-06-14T07:53:06;99837.22;;;26.95;22.48
49529;BME280;35423;37.320;-121.762;2023-06-14T07:55:37;99843.08;;;26.72;22.43
49529;BME280;35423;37.320;-121.762;2023-06-14T07:58:02;99842.55;;;26.95;22.48
49529;BME280;35423;37.320;-121.762;2023-06-14T08:00:29;99841.99;;;26.64;22.51
49529;BME280;35423;37.320;-121.762;2023-06-14T08:03:02;99849.49;;;26.91;22.53
49529;BME280;35423;37.320;-121.762;2023-06-14T08:05:28;99854.38;;;26.93;22.51
49529;BME280;35423;37.320;-121.762;2023-06-14T08:07:53;99851.75;;;26.95;22.49
49529;BME280;35423;37.320;-121.762;2023-06-14T08:10:25;99852.18;;;26.95;22.50
49529;BME280;35423;37.320;-121.762;2023-06-14T08:12:54;99849.84;;;26.97;22.55
49529;BME280;35423;37.320;-121.762;2023-06-14T08:15:18;99841.09;;;26.92;22.49
49529;BME280;35423;37.320;-121.762;2023-06-14T08:17:45;99837.41;;;26.60;22.67
49529;BME280;35423;37.320;-121.762;2023-06-14T08:20:14;99833.92;;;26.91;22.61
49529;BME280;35423;37.320;-121.762;2023-06-14T08:22:39;99831.68;;;26.91;22.62
49529;BME280;35423;37.320;-121.762;2023-06-14T08:25:06;99828.13;;;26.88;22.64
49529;BME280;35423;37.320;-121.762;2023-06-14T08:27:30;99821.87;;;26.86;22.69
49529;BME280;35423;37.320;-121.762;2023-06-14T08:29:59;99817.17;;;26.58;22.70
49529;BME280;35423;37.320;-121.762;2023-06-14T08:32:26;99814.41;;;26.80;22.75
49529;BME280;35423;37.320;-121.762;2023-06-14T08:34:54;99814.67;;;26.76;22.81
49529;BME280;35423;37.320;-121.762;2023-06-14T08:37:18;99814.83;;;26.91;22.86
49529;BME280;35423;37.320;-121.762;2023-06-14T08:39:46;99810.84;;;26.92;22.89
49529;BME280;35423;37.320;-121.762;2023-06-14T08:42:18;99805.63;;;26.73;23.06
49529;BME280;35423;37.320;-121.762;2023-06-14T08:44:40;99805.65;;;26.82;23.25
49529;BME280;35423;37.320;-121.762;2023-06-14T10:20:28;99796.78;;;25.90;24.07
49529;BME280;35423;37.320;-121.762;2023-06-14T10:22:58;99797.96;;;26.06;23.93
49529;BME280;35423;37.320;-121.762;2023-06-14T10:27:46;99801.44;;;26.13;23.72
49529;BME280;35423;37.320;-121.762;2023-06-14T10:30:12;99803.54;;;26.19;23.67
49529;BME280;35423;37.320;-121.762;2023-06-14T10:35:07;99802.10;;;26.30;23.51
49529;BME280;35423;37.320;-121.762;2023-06-14T10:37:31;99805.42;;;26.30;23.52
49529;BME280;35423;37.320;-121.762;2023-06-14T10:40:03;99805.20;;;26.56;23.49
49529;BME280;35423;37.320;-121.762;2023-06-14T10:42:33;99801.65;;;26.29;23.52
49529;BME280;35423;37.320;-121.762;2023-06-14T10:45:00;99807.27;;;26.36;23.67
49529;BME280;35423;37.320;-121.762;2023-06-14T10:47:26;99813.12;;;26.20;23.81
49529;BME280;35423;37.320;-121.762;2023-06-14T10:49:52;99814.21;;;26.33;23.91
49529;BME280;35423;37.320;-121.762;2023-06-14T10:52:17;99816.57;;;26.17;24.04
49529;BME280;35423;37.320;-121.762;2023-06-14T10:55:01;99819.03;;;25.76;24.41
49529;BME280;35423;37.320;-121.762;2023-06-14T10:57:08;99817.21;;;25.48;24.73
49529;BME280;35423;37.320;-121.762;2023-06-14T10:59:31;99816.22;;;25.59;24.67
49529;BME280;35423;37.320;-121.762;2023-06-14T11:02:11;99816.26;;;26.10;24.81
49529;BME280;35423;37.320;-121.762;2023-06-14T11:04:34;99810.38;;;26.57;25.06
49529;BME280;35423;37.320;-121.762;2023-06-14T11:07:06;99805.48;;;25.39;25.21
49529;BME280;35423;37.320;-121.762;2023-06-14T11:11:49;99814.09;;;25.40;25.15
49529;BME280;35423;37.320;-121.762;2023-06-14T11:14:16;99817.81;;;25.74;25.03
49529;BME280;35423;37.320;-121.762;2023-06-14T11:16:56;99822.76;;;25.41;24.94
49529;BME280;35423;37.320;-121.762;2023-06-14T11:19:11;99823.95;;;25.46;24.92
49529;BME280;35423;37.320;-121.762;2023-06-14T11:21:41;99822.94;;;25.53;24.90
49529;BME280;35423;37.320;-121.762;2023-06-14T11:24:10;99820.48;;;25.58;24.85
49529;BME280;35423;37.320;-121.762;2023-06-14T11:26:37;99822.29;;;25.62;24.84
49529;BME280;35423;37.320;-121.762;2023-06-14T11:29:08;99823.81;;;25.89;24.79
49529;BME280;35423;37.320;-121.762;2023-06-14T11:31:31;99819.13;;;25.67;24.80
49529;BME280;35423;37.320;-121.762;2023-06-14T11:33:57;99818.78;;;25.67;24.81
49529;BME280;35423;37.320;-121.762;2023-06-14T11:36:22;99813.61;;;25.64;24.87
49529;BME280;35423;37.320;-121.762;2023-06-14T11:38:48;99802.95;;;26.08;24.88
49529;BME280;35423;37.320;-121.762;2023-06-14T11:41:17;99804.09;;;25.62;24.81
49529;BME280;35423;37.320;-121.762;2023-06-14T11:43:42;99809.12;;;25.61;24.86
49529;BME280;35423;37.320;-121.762;2023-06-14T11:46:15;99805.35;;;26.00;24.89
49529;BME280;35423;37.320;-121.762;2023-06-14T11:48:40;99803.06;;;25.45;24.95
49529;BME280;35423;37.320;-121.762;2023-06-14T11:51:04;99799.22;;;25.40;25.05
49529;BME280;35423;37.320;-121.762;2023-06-14T11:53:30;99794.95;;;25.60;25.14
49529;BME280;35423;37.320;-121.762;2023-06-14T11:55:55;99792.59;;;25.83;25.11
49529;BME280;35423;37.320;-121.762;2023-06-14T11:58:26;99788.62;;;25.81;25.14
49529;BME280;35423;37.320;-121.762;2023-06-14T12:01:03;99775.66;;;25.40;25.11
49529;BME280;35423;37.320;-121.762;2023-06-14T12:03:23;99764.91;;;25.37;25.12
49529;BME280;35423;37.320;-121.762;2023-06-14T12:05:45;99758.36;;;25.36;25.27
49529;BME280;35423;37.320;-121.762;2023-06-14T12:08:12;99755.77;;;25.31;25.15
49529;BME280;35423;37.320;-121.762;2023-06-14T12:10:42;99760.30;;;25.67;25.17
49529;BME280;35423;37.320;-121.762;2023-06-14T12:13:09;99768.46;;;25.59;25.29
49529;BME280;35423;37.320;-121.762;2023-06-14T12:15:37;99767.20;;;25.54;25.32
49529;BME280;35423;37.320;-121.762;2023-06-14T12:18:06;99758.34;;;25.46;25.44
49529;BME280;35423;37.320;-121.762;2023-06-14T12:20:31;99757.04;;;25.44;25.43
49529;BME280;35423;37.320;-121.762;2023-06-14T12:23:04;99760.95;;;25.32;25.52
49529;BME280;35423;37.320;-121.762;2023-06-14T12:25:32;99754.03;;;25.01;25.54
49529;BME280;35423;37.320;-121.762;2023-06-14T12:28:06;99745.57;;;25.16;25.66
49529;BME280;35423;37.320;-121.762;2023-06-14T12:30:29;99744.25;;;25.10;25.72
49529;BME280;35423;37.320;-121.762;2023-06-14T12:33:00;99740.96;;;24.95;25.92
49529;BME280;35423;37.320;-121.762;2023-06-14T12:35:26;99741.15;;;24.92;25.97
49529;BME280;35423;37.320;-121.762;2023-06-14T12:37:54;99742.39;;;24.91;25.93
49529;BME280;35423;37.320;-121.762;2023-06-14T12:40:20;99741.27;;;24.87;25.97
49529;BME280;35423;37.320;-121.762;2023-06-14T12:42:51;99740.18;;;24.80;26.10
49529;BME280;35423;37.320;-121.762;2023-06-14T12:45:18;99733.72;;;25.81;26.07
49529;BME280;35423;37.320;-121.762;2023-06-14T12:47:44;99728.21;;;25.41;26.41
49529;BME280;35423;37.320;-121.762;2023-06-14T12:50:11;99729.26;;;24.88;26.92
49529;BME280;35423;37.320;-121.762;2023-06-14T12:52:41;99732.22;;;24.70;27.11
49529;BME280;35423;37.320;-121.762;2023-06-14T12:55:08;99732.05;;;24.58;27.20
49529;BME280;35423;37.320;-121.762;2023-06-14T12:57:33;99735.84;;;24.27;27.33
49529;BME280;35423;37.320;-121.762;2023-06-14T13:00:01;99737.72;;;24.61;27.28
49529;BME280;35423;37.320;-121.762;2023-06-14T13:02:27;99734.89;;;24.03;27.38
49529;BME280;35423;37.320;-121.762;2023-06-14T13:04:59;99739.43;;;24.28;27.17
49529;BME280;35423;37.320;-121.762;2023-06-14T13:07:19;99742.93;;;24.56;26.93
49529;BME280;35423;37.320;-121.762;2023-06-14T13:09:46;99743.94;;;24.48;26.78
49529;BME280;35423;37.320;-121.762;2023-06-14T13:12:12;99743.51;;;24.61;26.68
49529;BME280;35423;37.320;-121.762;2023-06-14T13:14:38;99739.79;;;24.75;26.52
49529;BME280;35423;37.320;-121.762;2023-06-14T13:17:10;99737.60;;;24.61;26.37
49529;BME280;35423;37.320;-121.762;2023-06-14T13:19:32;99733.13;;;24.63;26.36
49529;BME280;35423;37.320;-121.762;2023-06-14T13:21:59;99734.37;;;24.46;26.30
49529;BME280;35423;37.320;-121.762;2023-06-14T13:24:26;99736.80;;;24.60;26.35
49529;BME280;35423;37.320;-121.762;2023-06-14T13:26:57;99738.39;;;24.68;26.26
49529;BME280;35423;37.320;-121.762;2023-06-14T13:29:24;99737.48;;;24.75;26.21
49529;BME280;35423;37.320;-121.762;2023-06-14T13:31:50;99744.22;;;24.90;26.11
49529;BME280;35423;37.320;-121.762;2023-06-14T13:34:16;99748.71;;;25.06;25.99
49529;BME280;35423;37.320;-121.762;2023-06-14T13:36:43;99750.12;;;24.76;25.87
49529;BME280;35423;37.320;-121.762;2023-06-14T13:39:10;99752.27;;;24.86;25.78
49529;BME280;35423;37.320;-121.762;2023-06-14T13:41:41;99757.78;;;24.97;25.73
49529;BME280;35423;37.320;-121.762;2023-06-14T13:44:05;99759.49;;;25.07;25.64
49529;BME280;35423;37.320;-121.762;2023-06-14T13:46:33;99760.34;;;25.16;25.58
49529;BME280;35423;37.320;-121.762;2023-06-14T13:49:03;99756.74;;;25.45;25.50
49529;BME280;35423;37.320;-121.762;2023-06-14T13:51:28;99756.71;;;25.72;25.44
49529;BME280;35423;37.320;-121.762;2023-06-14T13:53:55;99757.82;;;25.32;25.42
49529;BME280;35423;37.320;-121.762;2023-06-14T13:56:24;99756.01;;;25.38;25.39
49529;BME280;35423;37.320;-121.762;2023-06-14T13:58:58;99753.97;;;25.45;25.37
49529;BME280;35423;37.320;-121.762;2023-06-14T14:01:19;99757.18;;;25.45;25.35
49529;BME280;35423;37.320;-121.762;2023-06-14T14:03:45;99757.81;;;25.46;25.31
49529;BME280;35423;37.320;-121.762;2023-06-14T14:06:11;99757.81;;;25.50;25.26
49529;BME280;35423;37.320;-121.762;2023-06-14T14:08:39;99760.86;;;25.43;25.33
49529;BME280;35423;37.320;-121.762;2023-06-14T14:11:08;99762.61;;;25.46;25.32
49529;BME280;35423;37.320;-121.762;2023-06-14T14:13:33;99764.41;;;25.47;25.31